METAR Formatted Surface Weather Observation
Issued by NWS

Home | Current Version | Previous Version | Text Only | Print | Product List | Glossary On
Versions: 1
000
SAUS44 KMOB 271603
MTR0J4
METAR K0J4 271558Z AUTO 13004KT 10SM CLR 28/21 A2999 RMK AO2 SLP150
T02830206 $



USA.gov is the U.S. government's official web portal to all federal, state and local government web resources and services.